Auburn, Pennsylvania
Current Conditions -  °F | °C
As of 12:02 AM on Monday 24 Nov 2014 (Local Time) from KRDG Reporting Station
Light Rain Light Rain  
Wind Chill: 52°   Ceiling: 1300
Heat Index: 52°   Visibility: 9mi
Dew Point: 48°   Wind: 3mph
Humidity: 86%   Direction: NA
Pressure: 29.87"   Gusts: NA
Location:  40.6°N, 76.09°W
Report Text: KRDG 240502Z AUTO VRB03KT 9SM -RA BKN013 BKN027 OVC040 11/09 A2987 RMK AO2 P0000 T01110089
Loading
Personal Weather Stations






























Interactive Weather Map New forecast layout! Learn more

10-Day Weather Forecast

Advertisements
Track Severe Weather on mobile